createdAt,value
2023-01-20T00:00:12.779Z,99641.66
2023-01-20T00:02:39.830Z,99645.02
2023-01-20T00:05:06.923Z,99649.77
2023-01-20T00:07:34.788Z,99653.24
2023-01-20T00:10:01.332Z,99650.44
2023-01-20T00:12:30.616Z,99646.96
2023-01-20T00:14:57.187Z,99650.64
2023-01-20T00:17:23.828Z,99651.18
2023-01-20T00:19:50.306Z,99644.54
2023-01-20T00:22:16.767Z,99647.75
2023-01-20T00:24:43.173Z,99655.27
2023-01-20T00:27:09.837Z,99658.46
2023-01-20T00:29:36.339Z,99659.91
2023-01-20T00:32:03.121Z,99660.90
2023-01-20T00:34:29.950Z,99660.36
2023-01-20T00:36:56.374Z,99657.06
2023-01-20T00:39:23.123Z,99662.48
2023-01-20T00:41:49.559Z,99666.48
2023-01-20T00:44:16.153Z,99671.00
2023-01-20T00:46:42.700Z,99667.60
2023-01-20T00:49:09.894Z,99667.38
2023-01-20T00:51:36.336Z,99670.16
2023-01-20T00:54:03.097Z,99666.96
2023-01-20T00:56:29.602Z,99662.28
2023-01-20T00:58:56.092Z,99656.20
2023-01-20T01:01:22.944Z,99651.88
2023-01-20T01:03:53.526Z,99654.42
2023-01-20T01:06:20.595Z,99652.13
2023-01-20T01:08:47.148Z,99654.20
2023-01-20T01:11:14.831Z,99650.44
2023-01-20T01:13:41.420Z,99651.73
2023-01-20T01:16:14.525Z,99654.50
2023-01-20T01:18:41.695Z,99652.46
2023-01-20T01:21:13.350Z,99648.17
2023-01-20T01:23:39.987Z,99650.44
2023-01-20T01:26:06.637Z,99651.62
2023-01-20T01:28:33.171Z,99653.33
2023-01-20T01:31:04.259Z,99653.38
2023-01-20T01:33:31.345Z,99651.96
2023-01-20T01:35:58.520Z,99653.45
2023-01-20T01:38:25.362Z,99647.45
2023-01-20T01:40:52.125Z,99653.38
2023-01-20T01:43:27.460Z,99653.27
2023-01-20T01:45:54.084Z,99653.52
2023-01-20T01:48:27.600Z,99656.73
2023-01-20T01:51:00.445Z,99664.98
2023-01-20T01:53:27.003Z,99667.92
2023-01-20T01:55:55.985Z,99664.20
2023-01-20T01:58:25.339Z,99662.20
2023-01-20T02:00:51.816Z,99663.13
2023-01-20T02:03:19.059Z,99660.17
2023-01-20T02:05:45.844Z,99656.94
2023-01-20T02:08:12.344Z,99655.17
2023-01-20T02:10:38.869Z,99654.45
2023-01-20T02:13:05.505Z,99658.45
2023-01-20T02:15:51.521Z,99658.67
2023-01-20T02:18:43.121Z,99658.96
2023-01-20T02:21:20.715Z,99661.63
2023-01-20T02:24:22.979Z,99659.94
2023-01-20T02:27:19.075Z,99663.92
2023-01-20T02:30:30.848Z,99666.02
2023-01-20T02:32:59.081Z,99673.20
2023-01-20T02:35:52.362Z,99674.64
2023-01-20T02:38:21.977Z,99687.03
2023-01-20T02:41:06.847Z,99693.73
2023-01-20T02:43:38.228Z,99694.27
2023-01-20T02:46:15.451Z,99696.09
2023-01-20T02:48:54.715Z,99692.45
2023-01-20T02:51:25.063Z,99699.89
2023-01-20T02:53:54.523Z,99705.28
2023-01-20T02:56:22.951Z,99705.92
2023-01-20T02:58:56.132Z,99702.25
2023-01-20T03:01:34.523Z,99701.97
2023-01-20T03:04:01.760Z,99706.94
2023-01-20T03:06:31.346Z,99708.01
2023-01-20T03:08:59.220Z,99705.48
2023-01-20T03:11:25.951Z,99705.44
2023-01-20T03:14:10.117Z,99704.06
2023-01-20T03:16:36.552Z,99715.02
2023-01-20T03:19:03.732Z,99723.16
2023-01-20T03:21:30.736Z,99728.17
2023-01-20T03:24:00.140Z,99726.58
2023-01-20T03:26:26.949Z,99721.39
2023-01-20T03:28:56.054Z,99727.98
2023-01-20T03:31:28.154Z,99740.51
2023-01-20T03:33:56.586Z,99748.73
2023-01-20T03:36:24.268Z,99749.60
2023-01-20T03:38:50.794Z,99754.04
2023-01-20T03:41:22.594Z,99757.81
2023-01-20T03:43:57.044Z,99756.79
2023-01-20T03:46:32.472Z,99757.89
2023-01-20T03:49:09.280Z,99759.05
2023-01-20T03:52:01.267Z,99759.62
2023-01-20T03:54:32.988Z,99756.17
2023-01-20T03:57:03.552Z,99755.20
2023-01-20T03:59:32.205Z,99758.98
2023-01-20T04:02:01.772Z,99760.65
2023-01-20T04:04:28.911Z,99763.08
2023-01-20T04:06:55.360Z,99773.01
2023-01-20T04:09:24.325Z,99778.19
2023-01-20T04:11:50.887Z,99773.56
2023-01-20T04:14:17.305Z,99773.89
2023-01-20T04:16:50.287Z,99778.76
2023-01-20T04:19:16.829Z,99787.47
2023-01-20T04:21:48.465Z,99803.52
2023-01-20T04:24:42.499Z,99813.33
2023-01-20T04:27:09.117Z,99811.31
2023-01-20T04:29:35.756Z,99813.86
2023-01-20T04:32:02.589Z,99814.31
2023-01-20T04:34:29.369Z,99810.25
2023-01-20T04:36:55.820Z,99813.25
2023-01-20T04:39:22.423Z,99814.48
2023-01-20T04:41:48.906Z,99812.93
2023-01-20T04:44:15.614Z,99813.52
2023-01-20T04:46:42.147Z,99822.11
2023-01-20T04:49:10.394Z,99824.48
2023-01-20T04:51:36.868Z,99836.98
2023-01-20T04:54:03.403Z,99838.02
2023-01-20T04:56:29.889Z,99849.19
2023-01-20T04:58:56.365Z,99852.52
2023-01-20T05:01:22.943Z,99854.27
2023-01-20T05:03:49.484Z,99856.33
2023-01-20T05:06:16.231Z,99851.55
2023-01-20T05:08:45.094Z,99843.17
2023-01-20T05:11:11.596Z,99840.97
2023-01-20T05:13:39.583Z,99835.66
2023-01-20T05:16:07.503Z,99847.52
2023-01-20T05:19:23.689Z,99863.22
2023-01-20T05:21:50.314Z,99867.33
2023-01-20T05:24:17.027Z,99868.30
2023-01-20T05:26:43.731Z,99871.24
2023-01-20T05:29:10.408Z,99866.23
2023-01-20T05:31:38.780Z,99869.32
2023-01-20T05:34:05.530Z,99867.27
2023-01-20T05:36:32.919Z,99867.73
2023-01-20T08:15:30.795Z,99989.76
2023-01-20T08:17:58.609Z,99995.36
2023-01-20T08:20:25.309Z,99996.14
2023-01-20T08:22:52.105Z,99996.95
2023-01-20T08:25:18.824Z,99997.48
2023-01-20T08:27:48.076Z,99997.53
2023-01-20T08:30:15.162Z,99993.19
2023-01-20T08:32:41.927Z,99997.98
2023-01-20T08:35:08.796Z,99997.55
2023-01-20T08:37:38.602Z,99996.25
2023-01-20T08:40:09.823Z,99997.38
2023-01-20T08:42:37.126Z,99989.50
2023-01-20T08:45:04.995Z,99992.45
2023-01-20T08:47:32.171Z,99991.94
2023-01-20T08:49:58.830Z,99992.26
2023-01-20T08:52:25.674Z,99991.48
2023-01-20T08:54:53.347Z,99989.52
2023-01-20T08:57:20.013Z,99988.17
2023-01-20T08:59:47.384Z,99994.00
2023-01-20T09:02:14.169Z,99993.58
2023-01-20T09:04:40.928Z,99987.87
2023-01-20T09:07:08.271Z,99984.83
2023-01-20T09:09:36.678Z,99983.62
2023-01-20T09:12:04.649Z,99988.08
2023-01-20T09:14:31.329Z,99994.45
2023-01-20T09:16:58.250Z,99995.61
2023-01-20T09:19:24.930Z,99998.89
2023-01-20T09:21:51.605Z,99996.85
2023-01-20T09:24:18.448Z,99998.53
2023-01-20T09:26:45.345Z,99999.04
2023-01-20T09:29:14.240Z,100000.96
2023-01-20T09:31:44.709Z,100000.16
2023-01-20T09:34:19.567Z,99997.16
2023-01-20T09:36:56.270Z,99992.63
2023-01-20T09:39:41.717Z,99993.35
2023-01-20T09:43:12.723Z,99998.95
2023-01-20T09:45:45.553Z,100004.08
2023-01-20T09:48:54.564Z,100002.55
2023-01-20T09:51:47.572Z,100004.31
2023-01-20T09:54:22.895Z,100005.98
2023-01-20T09:56:49.689Z,100003.83
2023-01-20T09:59:28.147Z,100010.63
2023-01-20T10:01:56.741Z,100015.43
2023-01-20T10:04:37.177Z,100019.05
2023-01-20T10:07:12.957Z,100017.77
2023-01-20T10:09:56.538Z,100014.88
2023-01-20T10:12:32.207Z,100014.93
2023-01-20T10:15:07.549Z,100005.54
2023-01-20T10:17:39.033Z,99995.70
2023-01-20T10:20:12.100Z,99990.81
2023-01-20T10:22:48.128Z,99989.13
2023-01-20T10:25:22.177Z,99990.35
2023-01-20T10:27:55.709Z,99995.14
2023-01-20T10:30:24.552Z,99995.92
2023-01-20T10:32:57.503Z,100000.67
2023-01-20T10:35:28.843Z,100002.90
2023-01-20T10:37:55.835Z,100001.64
2023-01-20T10:40:29.831Z,99998.08
2023-01-20T10:42:58.641Z,99994.84
2023-01-20T10:45:43.787Z,99998.77
2023-01-20T10:48:30.304Z,99997.52
2023-01-20T10:51:20.737Z,99990.58
2023-01-20T10:53:56.321Z,99994.64
2023-01-20T10:56:53.700Z,99993.30
2023-01-20T10:59:39.811Z,99991.17
2023-01-20T11:02:38.162Z,99992.02
2023-01-20T11:05:21.041Z,99993.16
2023-01-20T11:07:47.871Z,99990.02
2023-01-20T11:10:19.527Z,99991.52
2023-01-20T11:12:48.883Z,99995.61
2023-01-20T11:15:22.380Z,99994.30
2023-01-20T11:18:07.856Z,99995.63
2023-01-20T11:20:35.012Z,99996.95
2023-01-20T11:23:01.732Z,100002.91
2023-01-20T11:25:28.362Z,99999.13
2023-01-20T11:27:55.102Z,99999.18
2023-01-20T11:30:27.435Z,99997.46
2023-01-20T11:33:17.058Z,99999.23
2023-01-20T11:36:03.700Z,100001.20
2023-01-20T11:38:50.838Z,100007.33
2023-01-20T11:41:20.043Z,100005.84
2023-01-20T11:43:46.847Z,100004.68
2023-01-20T11:46:22.549Z,100003.55
2023-01-20T11:48:50.212Z,100003.11
2023-01-20T11:51:27.361Z,100010.60
2023-01-20T11:54:15.514Z,100012.00
2023-01-20T11:56:43.046Z,100015.00
2023-01-20T11:59:24.589Z,100011.94
2023-01-20T12:01:58.018Z,100014.41
2023-01-20T12:04:31.980Z,100013.75
2023-01-20T12:07:02.874Z,100014.22
2023-01-20T12:09:38.387Z,100014.52
2023-01-20T12:12:18.105Z,100020.21
2023-01-20T12:15:02.297Z,100014.81
2023-01-20T12:17:48.966Z,100008.21
2023-01-20T12:20:15.861Z,100009.23
2023-01-20T12:23:06.003Z,100015.59
2023-01-20T12:25:37.665Z,100020.73
2023-01-20T12:28:11.001Z,100021.08
2023-01-20T12:30:53.362Z,100022.73
2023-01-20T12:33:22.214Z,100026.42
2023-01-20T12:36:27.497Z,100026.75
2023-01-20T12:39:21.123Z,100030.63
2023-01-20T12:42:01.805Z,100033.69
2023-01-20T12:44:42.177Z,100032.98
2023-01-20T12:47:14.628Z,100039.45
2023-01-20T12:50:19.038Z,100043.20
2023-01-20T12:53:04.129Z,100040.14
2023-01-20T12:55:49.000Z,100044.71
2023-01-20T12:58:32.083Z,100047.54
2023-01-20T13:01:36.087Z,100043.98
2023-01-20T13:04:40.549Z,100048.46
2023-01-20T13:07:19.244Z,100047.63
2023-01-20T13:09:58.091Z,100043.36
2023-01-20T13:12:43.567Z,100047.14
2023-01-20T13:15:15.269Z,100041.98
2023-01-20T13:18:01.091Z,100040.50
2023-01-20T13:20:28.488Z,100037.45
2023-01-20T13:22:55.458Z,100037.42
2023-01-20T13:25:22.394Z,100042.94
2023-01-20T13:27:51.141Z,100041.26
2023-01-20T13:30:37.104Z,100039.00
2023-01-20T13:33:07.787Z,100037.91
2023-01-20T13:35:46.949Z,100038.02
2023-01-20T13:38:19.081Z,100042.61
2023-01-20T13:40:45.783Z,100043.55
2023-01-20T17:53:36.161Z,100128.40
2023-01-20T17:56:12.480Z,100128.17
2023-01-20T17:58:39.968Z,100129.73
2023-01-20T18:01:20.441Z,100131.14
2023-01-20T18:03:48.250Z,100131.27
2023-01-20T18:06:15.871Z,100130.55
2023-01-20T18:08:42.723Z,100129.73
2023-01-20T18:11:19.394Z,100133.64
2023-01-20T18:13:46.362Z,100138.20
2023-01-20T18:16:14.228Z,100137.13
2023-01-20T18:18:41.564Z,100142.08
2023-01-20T18:21:12.680Z,100142.70
2023-01-20T18:23:39.593Z,100146.38
2023-01-20T18:26:06.902Z,100151.54
2023-01-20T18:28:33.739Z,100151.05
2023-01-20T18:31:24.617Z,100150.16
2023-01-20T18:33:56.303Z,100160.55
2023-01-20T18:36:48.548Z,100162.36
2023-01-20T18:39:17.218Z,100161.54
2023-01-20T18:41:43.942Z,100156.77
2023-01-20T18:44:10.788Z,100162.27
2023-01-20T18:46:37.651Z,100165.57
2023-01-20T18:49:05.841Z,100171.56
2023-01-20T18:51:33.929Z,100172.67
2023-01-20T18:54:05.961Z,100171.78
2023-01-20T18:56:35.678Z,100174.92
2023-01-20T18:59:03.195Z,100176.02
2023-01-20T19:01:33.758Z,100177.55
2023-01-20T19:04:01.453Z,100175.84
2023-01-20T19:06:29.483Z,100178.65
2023-01-20T19:08:57.349Z,100180.94
2023-01-20T19:11:29.330Z,100181.01
2023-01-20T19:13:56.084Z,100181.84
2023-01-20T19:16:24.820Z,100187.39
2023-01-20T19:18:53.031Z,100190.65
2023-01-20T19:21:20.030Z,100185.48
2023-01-20T19:23:54.128Z,100175.71
2023-01-20T19:26:21.799Z,100180.73
2023-01-20T19:28:55.096Z,100190.05
2023-01-20T19:31:21.922Z,100192.20
2023-01-20T19:33:51.649Z,100193.68
2023-01-20T19:36:18.747Z,100195.27
2023-01-20T19:38:45.548Z,100201.86
2023-01-20T19:41:29.038Z,100203.65
2023-01-20T19:43:57.338Z,100202.23
2023-01-20T19:46:25.988Z,100203.67
2023-01-20T19:48:53.308Z,100208.27
2023-01-20T19:51:20.256Z,100212.06
2023-01-20T19:53:47.388Z,100215.40
2023-01-20T19:56:15.457Z,100215.64
2023-01-20T19:58:42.700Z,100216.80
2023-01-20T20:01:26.042Z,100218.01
2023-01-20T20:03:53.106Z,100223.67
2023-01-20T20:06:32.760Z,100223.12
2023-01-20T20:09:01.363Z,100228.98
2023-01-20T20:11:28.403Z,100228.88
2023-01-20T20:14:00.831Z,100229.48
2023-01-20T20:16:30.226Z,100228.07
2023-01-20T20:18:57.439Z,100228.28
2023-01-20T20:21:24.208Z,100230.58
2023-01-20T20:23:52.194Z,100233.51
2023-01-20T20:26:19.459Z,100239.10
2023-01-20T20:28:46.214Z,100242.45
2023-01-20T20:31:13.143Z,100241.73
2023-01-20T20:33:41.150Z,100243.86
2023-01-20T20:36:09.113Z,100245.48
2023-01-20T20:38:36.767Z,100245.98
2023-01-20T20:41:04.321Z,100251.05
2023-01-20T20:43:31.033Z,100252.65
2023-01-20T20:46:01.532Z,100249.62
2023-01-20T20:48:28.719Z,100253.31
2023-01-20T20:50:55.492Z,100251.79
2023-01-20T20:53:22.221Z,100256.05
2023-01-20T20:55:51.509Z,100263.27
2023-01-20T20:58:18.150Z,100260.79
2023-01-20T21:00:49.397Z,100264.59
2023-01-20T21:03:16.077Z,100270.23
2023-01-20T21:05:46.506Z,100273.41
2023-01-20T21:08:13.482Z,100271.65
2023-01-20T21:10:41.123Z,100272.89
2023-01-20T21:13:08.347Z,100275.55
2023-01-20T21:15:35.706Z,100275.98
2023-01-20T21:18:02.352Z,100271.67
2023-01-20T21:20:31.243Z,100274.77
2023-01-20T21:22:58.142Z,100274.92
2023-01-20T21:25:25.015Z,100275.50
2023-01-20T21:27:51.666Z,100285.14
2023-01-20T21:30:19.188Z,100281.55
2023-01-20T21:32:45.997Z,100286.29
2023-01-20T21:35:12.704Z,100284.29
2023-01-20T21:37:39.458Z,100285.73
2023-01-20T21:40:06.755Z,100287.83
2023-01-20T21:42:33.411Z,100287.04
2023-01-20T21:45:00.081Z,100284.92
2023-01-20T21:47:26.802Z,100284.38
2023-01-20T23:56:01.586Z,100317.14
2023-01-20T23:58:28.412Z,100318.60
